KDEH/DEH METAR and TAF weather

Enter ICAO airport designator
Station Type Date Time Source
KDEH METAR 2022/01/26 13:55 UTC NOAA

KDEH 261355Z AUTO 17005KT 10SM CLR M28/M30 A3035 RMK AO2


Station Type Date Time Source
KDEH Decoded METAR 2022/01/26 13:55 UTC NOAA

Decorah, IA, United States (KDEH) 43-17N 091-44W
Jan 26, 2022 - 08:55 AM EST / 2022.01.26 1355 UTC
Wind: from the S (170 degrees) at 6 MPH (5 KT):0
Visibility: 10 mile(s):0
Sky conditions: clear
Temperature: -18 F (-28 C)
Windchill: -32 F (-36 C):2
Dew Point: -22 F (-30 C)
Relative Humidity: 82%
Pressure (altimeter): 30.35 in. Hg (1027 hPa)
ob: KDEH 261355Z AUTO 17005KT 10SM CLR M28/M30 A3035 RMK AO2
cycle: 14

Station Type Date Time Source
KDEH TAF UTC NOAA

Error!

Example: see airport list